sensor_id;sensor_type;location;lat;lon;timestamp;temperature;humidity
33476;DHT22;19814;48.224;11.422;2023-06-24T00:02:06;16.90;99.90
33476;DHT22;19814;48.224;11.422;2023-06-24T00:04:32;16.90;99.90
33476;DHT22;19814;48.224;11.422;2023-06-24T00:06:58;16.90;99.90
33476;DHT22;19814;48.224;11.422;2023-06-24T00:09:25;16.90;99.90
33476;DHT22;19814;48.224;11.422;2023-06-24T00:11:53;16.90;99.90
33476;DHT22;19814;48.224;11.422;2023-06-24T00:14:19;17.00;99.90
33476;DHT22;19814;48.224;11.422;2023-06-24T00:16:46;17.00;99.90
33476;DHT22;19814;48.224;11.422;2023-06-24T00:19:15;17.00;99.90
33476;DHT22;19814;48.224;11.422;2023-06-24T00:21:40;17.00;99.90
33476;DHT22;19814;48.224;11.422;2023-06-24T00:24:06;17.00;99.90
33476;DHT22;19814;48.224;11.422;2023-06-24T00:26:31;17.00;99.90
33476;DHT22;19814;48.224;11.422;2023-06-24T00:28:58;17.00;99.90
33476;DHT22;19814;48.224;11.422;2023-06-24T00:31:24;16.90;99.90
33476;DHT22;19814;48.224;11.422;2023-06-24T00:33:49;16.90;99.90
33476;DHT22;19814;48.224;11.422;2023-06-24T00:36:17;16.90;99.90
33476;DHT22;19814;48.224;11.422;2023-06-24T00:38:42;16.90;99.90
33476;DHT22;19814;48.224;11.422;2023-06-24T00:41:09;16.90;99.90
33476;DHT22;19814;48.224;11.422;2023-06-24T00:43:35;16.90;99.90
33476;DHT22;19814;48.224;11.422;2023-06-24T00:46:00;16.90;99.90
33476;DHT22;19814;48.224;11.422;2023-06-24T00:48:26;17.00;99.90
33476;DHT22;19814;48.224;11.422;2023-06-24T00:50:52;17.00;99.90
33476;DHT22;19814;48.224;11.422;2023-06-24T00:53:18;16.90;99.90
33476;DHT22;19814;48.224;11.422;2023-06-24T00:55:44;16.90;99.90
33476;DHT22;19814;48.224;11.422;2023-06-24T00:58:11;16.90;99.90
33476;DHT22;19814;48.224;11.422;2023-06-24T01:00:42;16.90;99.90
33476;DHT22;19814;48.224;11.422;2023-06-24T01:03:09;16.90;99.90
33476;DHT22;19814;48.224;11.422;2023-06-24T01:05:35;16.90;99.90
33476;DHT22;19814;48.224;11.422;2023-06-24T01:08:02;16.90;99.90
33476;DHT22;19814;48.224;11.422;2023-06-24T01:10:27;17.00;99.90
33476;DHT22;19814;48.224;11.422;2023-06-24T01:12:53;17.00;99.90
33476;DHT22;19814;48.224;11.422;2023-06-24T01:15:19;17.00;99.90
33476;DHT22;19814;48.224;11.422;2023-06-24T01:18:08;17.00;99.90
33476;DHT22;19814;48.224;11.422;2023-06-24T01:20:56;17.00;99.90
33476;DHT22;19814;48.224;11.422;2023-06-24T01:23:48;17.00;
33476;DHT22;19814;48.224;11.422;2023-06-24T01:29:47;17.00;99.90
33476;DHT22;19814;48.224;11.422;2023-06-24T01:35:00;17.00;99.90
33476;DHT22;19814;48.224;11.422;2023-06-24T01:37:38;17.00;99.90
33476;DHT22;19814;48.224;11.422;2023-06-24T01:40:17;17.00;99.90
33476;DHT22;19814;48.224;11.422;2023-06-24T01:42:45;16.90;99.90
33476;DHT22;19814;48.224;11.422;2023-06-24T01:45:23;17.00;99.90
33476;DHT22;19814;48.224;11.422;2023-06-24T01:48:00;17.00;99.90
33476;DHT22;19814;48.224;11.422;2023-06-24T01:50:31;17.00;99.90
33476;DHT22;19814;48.224;11.422;2023-06-24T01:52:58;17.00;99.90
33476;DHT22;19814;48.224;11.422;2023-06-24T01:55:26;17.00;99.90
33476;DHT22;19814;48.224;11.422;2023-06-24T01:57:54;17.00;99.90
33476;DHT22;19814;48.224;11.422;2023-06-24T02:00:23;17.00;99.90
33476;DHT22;19814;48.224;11.422;2023-06-24T02:02:50;17.00;99.90
33476;DHT22;19814;48.224;11.422;2023-06-24T02:05:17;17.00;99.90
33476;DHT22;19814;48.224;11.422;2023-06-24T02:07:45;17.00;99.90
33476;DHT22;19814;48.224;11.422;2023-06-24T02:10:12;17.00;99.90
33476;DHT22;19814;48.224;11.422;2023-06-24T02:12:39;17.00;99.90
33476;DHT22;19814;48.224;11.422;2023-06-24T02:15:06;17.00;99.90
33476;DHT22;19814;48.224;11.422;2023-06-24T02:17:33;17.00;99.90
33476;DHT22;19814;48.224;11.422;2023-06-24T02:19:59;16.90;99.90
33476;DHT22;19814;48.224;11.422;2023-06-24T02:22:25;16.90;99.90
33476;DHT22;19814;48.224;11.422;2023-06-24T02:24:51;16.90;99.90
33476;DHT22;19814;48.224;11.422;2023-06-24T02:27:17;16.90;99.90
33476;DHT22;19814;48.224;11.422;2023-06-24T02:29:44;16.90;99.90
33476;DHT22;19814;48.224;11.422;2023-06-24T02:32:12;16.90;99.90
33476;DHT22;19814;48.224;11.422;2023-06-24T02:34:37;16.90;99.90
33476;DHT22;19814;48.224;11.422;2023-06-24T02:37:04;16.90;99.90
33476;DHT22;19814;48.224;11.422;2023-06-24T02:39:30;16.90;99.90
33476;DHT22;19814;48.224;11.422;2023-06-24T02:41:55;16.90;99.90
33476;DHT22;19814;48.224;11.422;2023-06-24T02:44:21;16.90;99.90
33476;DHT22;19814;48.224;11.422;2023-06-24T02:46:47;16.90;99.90
33476;DHT22;19814;48.224;11.422;2023-06-24T02:49:15;16.90;99.90
33476;DHT22;19814;48.224;11.422;2023-06-24T02:51:41;16.90;99.90
33476;DHT22;19814;48.224;11.422;2023-06-24T02:54:07;16.90;99.90
33476;DHT22;19814;48.224;11.422;2023-06-24T02:56:34;16.90;99.90
33476;DHT22;19814;48.224;11.422;2023-06-24T02:59:00;16.90;99.90
33476;DHT22;19814;48.224;11.422;2023-06-24T03:01:26;16.80;99.90
33476;DHT22;19814;48.224;11.422;2023-06-24T03:03:56;16.70;99.90
33476;DHT22;19814;48.224;11.422;2023-06-24T03:06:22;16.70;99.90
33476;DHT22;19814;48.224;11.422;2023-06-24T03:08:49;16.60;99.90
33476;DHT22;19814;48.224;11.422;2023-06-24T03:11:15;16.60;99.90
33476;DHT22;19814;48.224;11.422;2023-06-24T03:13:42;16.60;99.90
33476;DHT22;19814;48.224;11.422;2023-06-24T03:16:08;16.60;99.90
33476;DHT22;19814;48.224;11.422;2023-06-24T03:18:43;16.60;99.90
33476;DHT22;19814;48.224;11.422;2023-06-24T03:21:09;16.60;99.90
33476;DHT22;19814;48.224;11.422;2023-06-24T03:23:35;16.60;99.90
33476;DHT22;19814;48.224;11.422;2023-06-24T03:26:01;16.60;99.90
33476;DHT22;19814;48.224;11.422;2023-06-24T03:28:31;16.60;99.90
33476;DHT22;19814;48.224;11.422;2023-06-24T03:31:00;16.70;99.90
33476;DHT22;19814;48.224;11.422;2023-06-24T03:33:25;16.70;99.90
33476;DHT22;19814;48.224;11.422;2023-06-24T03:35:53;16.60;99.90
33476;DHT22;19814;48.224;11.422;2023-06-24T03:38:19;16.60;99.90
33476;DHT22;19814;48.224;11.422;2023-06-24T03:40:45;16.60;99.90
33476;DHT22;19814;48.224;11.422;2023-06-24T03:43:11;16.60;99.90
33476;DHT22;19814;48.224;11.422;2023-06-24T03:45:36;16.50;99.90
33476;DHT22;19814;48.224;11.422;2023-06-24T03:48:02;16.50;99.90
33476;DHT22;19814;48.224;11.422;2023-06-24T03:50:27;16.60;99.90
33476;DHT22;19814;48.224;11.422;2023-06-24T03:52:53;16.60;99.90
33476;DHT22;19814;48.224;11.422;2023-06-24T03:55:18;16.60;99.90
33476;DHT22;19814;48.224;11.422;2023-06-24T03:57:44;16.40;99.90
33476;DHT22;19814;48.224;11.422;2023-06-24T04:00:10;16.30;99.90
33476;DHT22;19814;48.224;11.422;2023-06-24T04:02:45;16.30;99.90
33476;DHT22;19814;48.224;11.422;2023-06-24T04:05:10;16.40;99.90
33476;DHT22;19814;48.224;11.422;2023-06-24T04:07:36;16.40;99.90
33476;DHT22;19814;48.224;11.422;2023-06-24T04:10:05;16.40;99.90
33476;DHT22;19814;48.224;11.422;2023-06-24T04:12:34;16.40;99.90
33476;DHT22;19814;48.224;11.422;2023-06-24T04:15:00;16.40;99.90
33476;DHT22;19814;48.224;11.422;2023-06-24T04:17:26;16.50;99.90
33476;DHT22;19814;48.224;11.422;2023-06-24T04:19:51;16.60;99.90
33476;DHT22;19814;48.224;11.422;2023-06-24T04:22:17;16.60;99.90
33476;DHT22;19814;48.224;11.422;2023-06-24T04:24:42;16.70;99.90
33476;DHT22;19814;48.224;11.422;2023-06-24T04:27:08;16.80;99.90
33476;DHT22;19814;48.224;11.422;2023-06-24T04:29:34;16.80;99.90
33476;DHT22;19814;48.224;11.422;2023-06-24T04:32:00;16.90;99.90
33476;DHT22;19814;48.224;11.422;2023-06-24T04:34:25;16.90;99.90
33476;DHT22;19814;48.224;11.422;2023-06-24T04:36:51;16.90;99.90
33476;DHT22;19814;48.224;11.422;2023-06-24T04:39:16;17.00;99.90
33476;DHT22;19814;48.224;11.422;2023-06-24T04:41:42;17.00;99.90
33476;DHT22;19814;48.224;11.422;2023-06-24T04:44:07;17.00;99.90
33476;DHT22;19814;48.224;11.422;2023-06-24T04:46:33;17.10;99.90
33476;DHT22;19814;48.224;11.422;2023-06-24T04:49:00;17.10;99.90
33476;DHT22;19814;48.224;11.422;2023-06-24T04:51:25;17.20;99.90
33476;DHT22;19814;48.224;11.422;2023-06-24T04:53:51;17.20;99.90
33476;DHT22;19814;48.224;11.422;2023-06-24T04:56:16;17.30;99.90
33476;DHT22;19814;48.224;11.422;2023-06-24T04:58:42;17.30;99.90
33476;DHT22;19814;48.224;11.422;2023-06-24T05:01:07;17.30;99.90
33476;DHT22;19814;48.224;11.422;2023-06-24T05:03:33;17.40;99.90
33476;DHT22;19814;48.224;11.422;2023-06-24T05:05:58;17.40;99.90
33476;DHT22;19814;48.224;11.422;2023-06-24T05:08:24;17.50;99.90
33476;DHT22;19814;48.224;11.422;2023-06-24T05:10:50;17.50;99.90
33476;DHT22;19814;48.224;11.422;2023-06-24T05:13:15;17.60;99.90
33476;DHT22;19814;48.224;11.422;2023-06-24T05:15:41;17.60;99.90
33476;DHT22;19814;48.224;11.422;2023-06-24T05:18:06;17.60;99.90
33476;DHT22;19814;48.224;11.422;2023-06-24T05:20:32;17.70;99.90
33476;DHT22;19814;48.224;11.422;2023-06-24T05:22:57;17.70;99.90
33476;DHT22;19814;48.224;11.422;2023-06-24T05:25:23;17.70;99.90
33476;DHT22;19814;48.224;11.422;2023-06-24T05:27:49;17.70;99.90
33476;DHT22;19814;48.224;11.422;2023-06-24T05:30:14;17.60;99.90
33476;DHT22;19814;48.224;11.422;2023-06-24T05:32:40;17.60;99.90
33476;DHT22;19814;48.224;11.422;2023-06-24T05:35:06;17.60;99.90
33476;DHT22;19814;48.224;11.422;2023-06-24T05:37:32;17.70;99.90
33476;DHT22;19814;48.224;11.422;2023-06-24T05:39:57;17.70;99.90
33476;DHT22;19814;48.224;11.422;2023-06-24T05:42:26;17.70;99.90
33476;DHT22;19814;48.224;11.422;2023-06-24T05:44:52;17.70;99.90
33476;DHT22;19814;48.224;11.422;2023-06-24T05:47:17;17.70;99.90
33476;DHT22;19814;48.224;11.422;2023-06-24T05:49:43;17.80;99.90
33476;DHT22;19814;48.224;11.422;2023-06-24T05:52:08;17.80;99.90
33476;DHT22;19814;48.224;11.422;2023-06-24T05:54:34;17.80;99.90
33476;DHT22;19814;48.224;11.422;2023-06-24T05:56:59;17.90;99.90
33476;DHT22;19814;48.224;11.422;2023-06-24T05:59:25;18.00;99.90
33476;DHT22;19814;48.224;11.422;2023-06-24T06:01:50;18.00;99.90
33476;DHT22;19814;48.224;11.422;2023-06-24T06:04:16;18.10;99.90
33476;DHT22;19814;48.224;11.422;2023-06-24T06:06:42;18.20;99.90
33476;DHT22;19814;48.224;11.422;2023-06-24T06:09:07;18.30;99.90
33476;DHT22;19814;48.224;11.422;2023-06-24T06:11:33;18.40;99.90
33476;DHT22;19814;48.224;11.422;2023-06-24T06:13:58;18.50;99.90
33476;DHT22;19814;48.224;11.422;2023-06-24T06:16:24;18.60;99.90
33476;DHT22;19814;48.224;11.422;2023-06-24T06:18:50;18.70;99.90
33476;DHT22;19814;48.224;11.422;2023-06-24T06:21:16;18.80;99.90
33476;DHT22;19814;48.224;11.422;2023-06-24T06:23:41;18.90;99.90
33476;DHT22;19814;48.224;11.422;2023-06-24T06:26:07;18.90;99.90
33476;DHT22;19814;48.224;11.422;2023-06-24T06:28:32;19.00;99.90
33476;DHT22;19814;48.224;11.422;2023-06-24T06:30:58;19.10;99.90
33476;DHT22;19814;48.224;11.422;2023-06-24T06:33:23;19.10;99.90
33476;DHT22;19814;48.224;11.422;2023-06-24T06:35:49;19.10;99.90
33476;DHT22;19814;48.224;11.422;2023-06-24T06:38:14;19.10;99.90
33476;DHT22;19814;48.224;11.422;2023-06-24T06:40:43;19.20;99.90
33476;DHT22;19814;48.224;11.422;2023-06-24T06:43:08;19.20;99.90
33476;DHT22;19814;48.224;11.422;2023-06-24T06:45:34;19.30;99.90
33476;DHT22;19814;48.224;11.422;2023-06-24T06:47:59;19.30;99.90
33476;DHT22;19814;48.224;11.422;2023-06-24T06:50:25;19.40;99.90
33476;DHT22;19814;48.224;11.422;2023-06-24T06:52:51;19.50;99.90
33476;DHT22;19814;48.224;11.422;2023-06-24T06:55:16;19.50;99.90
33476;DHT22;19814;48.224;11.422;2023-06-24T06:57:42;19.60;99.90
33476;DHT22;19814;48.224;11.422;2023-06-24T07:00:08;19.70;99.90
33476;DHT22;19814;48.224;11.422;2023-06-24T07:02:34;19.80;99.90
33476;DHT22;19814;48.224;11.422;2023-06-24T07:05:00;19.80;99.90
33476;DHT22;19814;48.224;11.422;2023-06-24T07:07:26;19.90;99.90
33476;DHT22;19814;48.224;11.422;2023-06-24T07:09:51;20.00;99.90
33476;DHT22;19814;48.224;11.422;2023-06-24T07:12:17;20.10;98.60
33476;DHT22;19814;48.224;11.422;2023-06-24T07:14:42;20.10;99.30
33476;DHT22;19814;48.224;11.422;2023-06-24T07:17:08;20.10;99.00
33476;DHT22;19814;48.224;11.422;2023-06-24T07:19:34;20.20;97.80
33476;DHT22;19814;48.224;11.422;2023-06-24T07:21:59;20.20;97.50
33476;DHT22;19814;48.224;11.422;2023-06-24T07:24:25;20.20;97.70
33476;DHT22;19814;48.224;11.422;2023-06-24T07:26:50;20.30;98.10
33476;DHT22;19814;48.224;11.422;2023-06-24T07:29:15;20.30;98.00
33476;DHT22;19814;48.224;11.422;2023-06-24T07:31:41;20.50;97.40
33476;DHT22;19814;48.224;11.422;2023-06-24T07:34:07;20.50;98.70
33476;DHT22;19814;48.224;11.422;2023-06-24T07:36:32;20.60;96.20
33476;DHT22;19814;48.224;11.422;2023-06-24T07:38:58;20.70;95.70
33476;DHT22;19814;48.224;11.422;2023-06-24T07:41:23;20.80;97.50
33476;DHT22;19814;48.224;11.422;2023-06-24T07:43:49;20.90;94.90
33476;DHT22;19814;48.224;11.422;2023-06-24T07:46:15;21.00;96.40
33476;DHT22;19814;48.224;11.422;2023-06-24T07:48:40;21.00;95.10
33476;DHT22;19814;48.224;11.422;2023-06-24T07:51:06;21.10;95.90
33476;DHT22;19814;48.224;11.422;2023-06-24T07:53:31;21.20;94.90
33476;DHT22;19814;48.224;11.422;2023-06-24T07:55:58;21.20;95.80
33476;DHT22;19814;48.224;11.422;2023-06-24T07:58:24;21.40;94.90
33476;DHT22;19814;48.224;11.422;2023-06-24T08:00:49;21.70;95.00
33476;DHT22;19814;48.224;11.422;2023-06-24T08:03:15;22.10;95.50
33476;DHT22;19814;48.224;11.422;2023-06-24T08:05:40;22.40;95.60
33476;DHT22;19814;48.224;11.422;2023-06-24T08:08:07;22.60;92.80
33476;DHT22;19814;48.224;11.422;2023-06-24T08:10:33;22.60;93.80
33476;DHT22;19814;48.224;11.422;2023-06-24T08:12:58;22.60;91.50
33476;DHT22;19814;48.224;11.422;2023-06-24T08:15:24;22.50;90.30
33476;DHT22;19814;48.224;11.422;2023-06-24T08:17:53;22.50;88.00
33476;DHT22;19814;48.224;11.422;2023-06-24T08:20:20;22.60;87.00
33476;DHT22;19814;48.224;11.422;2023-06-24T08:22:56;22.40;90.00
33476;DHT22;19814;48.224;11.422;2023-06-24T08:25:21;22.60;92.30
33476;DHT22;19814;48.224;11.422;2023-06-24T08:27:47;23.00;93.10
33476;DHT22;19814;48.224;11.422;2023-06-24T08:30:14;23.30;92.20
33476;DHT22;19814;48.224;11.422;2023-06-24T08:32:43;23.60;92.30
33476;DHT22;19814;48.224;11.422;2023-06-24T08:35:09;23.90;89.60
33476;DHT22;19814;48.224;11.422;2023-06-24T08:37:36;24.10;91.50
33476;DHT22;19814;48.224;11.422;2023-06-24T08:40:02;24.50;91.60
33476;DHT22;19814;48.224;11.422;2023-06-24T08:42:29;24.70;91.10
33476;DHT22;19814;48.224;11.422;2023-06-24T08:44:55;24.90;86.70
33476;DHT22;19814;48.224;11.422;2023-06-24T08:47:25;24.90;85.20
33476;DHT22;19814;48.224;11.422;2023-06-24T08:49:55;24.80;84.80
33476;DHT22;19814;48.224;11.422;2023-06-24T08:52:26;24.80;85.10
33476;DHT22;19814;48.224;11.422;2023-06-24T08:54:55;25.00;87.60
33476;DHT22;19814;48.224;11.422;2023-06-24T08:57:23;24.90;87.10
33476;DHT22;19814;48.224;11.422;2023-06-24T08:59:49;25.20;90.00
33476;DHT22;19814;48.224;11.422;2023-06-24T09:02:14;25.40;90.10
33476;DHT22;19814;48.224;11.422;2023-06-24T09:04:40;25.50;81.60
33476;DHT22;19814;48.224;11.422;2023-06-24T09:07:06;25.50;81.00
33476;DHT22;19814;48.224;11.422;2023-06-24T09:09:31;25.40;83.00
33476;DHT22;19814;48.224;11.422;2023-06-24T09:11:58;25.50;83.00
33476;DHT22;19814;48.224;11.422;2023-06-24T09:14:25;25.70;80.80
33476;DHT22;19814;48.224;11.422;2023-06-24T09:16:55;25.80;83.40
33476;DHT22;19814;48.224;11.422;2023-06-24T09:19:26;26.00;85.30
33476;DHT22;19814;48.224;11.422;2023-06-24T09:22:12;26.30;85.10
33476;DHT22;19814;48.224;11.422;2023-06-24T09:24:43;26.70;87.60
33476;DHT22;19814;48.224;11.422;2023-06-24T09:27:15;26.80;85.70
33476;DHT22;19814;48.224;11.422;2023-06-24T09:29:42;27.10;81.30
33476;DHT22;19814;48.224;11.422;2023-06-24T09:32:09;27.00;76.30
33476;DHT22;19814;48.224;11.422;2023-06-24T09:34:35;27.00;78.80
33476;DHT22;19814;48.224;11.422;2023-06-24T09:37:00;26.60;78.20
33476;DHT22;19814;48.224;11.422;2023-06-24T09:39:27;26.10;74.90
33476;DHT22;19814;48.224;11.422;2023-06-24T09:41:57;25.80;78.90
33476;DHT22;19814;48.224;11.422;2023-06-24T09:44:23;25.50;79.90
33476;DHT22;19814;48.224;11.422;2023-06-24T09:46:49;25.10;80.90
33476;DHT22;19814;48.224;11.422;2023-06-24T09:49:14;24.60;82.70
33476;DHT22;19814;48.224;11.422;2023-06-24T09:51:43;24.30;86.70
33476;DHT22;19814;48.224;11.422;2023-06-24T09:54:11;24.10;86.10
33476;DHT22;19814;48.224;11.422;2023-06-24T09:56:39;24.00;81.80
33476;DHT22;19814;48.224;11.422;2023-06-24T09:59:06;24.10;78.00
33476;DHT22;19814;48.224;11.422;2023-06-24T10:01:37;24.30;80.30
33476;DHT22;19814;48.224;11.422;2023-06-24T10:04:04;24.70;80.50
33476;DHT22;19814;48.224;11.422;2023-06-24T10:06:31;25.20;75.60
33476;DHT22;19814;48.224;11.422;2023-06-24T10:08:58;25.10;75.10
33476;DHT22;19814;48.224;11.422;2023-06-24T10:11:23;25.00;77.20
33476;DHT22;19814;48.224;11.422;2023-06-24T10:13:49;25.10;75.60
33476;DHT22;19814;48.224;11.422;2023-06-24T10:16:15;25.20;76.70
33476;DHT22;19814;48.224;11.422;2023-06-24T10:18:40;25.30;73.70
33476;DHT22;19814;48.224;11.422;2023-06-24T10:21:08;25.60;70.30
33476;DHT22;19814;48.224;11.422;2023-06-24T10:26:29;25.30;72.60
33476;DHT22;19814;48.224;11.422;2023-06-24T10:36:55;25.90;73.60
33476;DHT22;19814;48.224;11.422;2023-06-24T10:39:59;25.60;70.60
33476;DHT22;19814;48.224;11.422;2023-06-24T10:42:42;25.70;81.00
33476;DHT22;19814;48.224;11.422;2023-06-24T10:47:50;26.50;70.30
33476;DHT22;19814;48.224;11.422;2023-06-24T10:50:21;26.80;68.60
33476;DHT22;19814;48.224;11.422;2023-06-24T10:52:48;26.70;67.80
33476;DHT22;19814;48.224;11.422;2023-06-24T10:55:16;26.70;68.60
33476;DHT22;19814;48.224;11.422;2023-06-24T10:57:42;26.70;69.30
33476;DHT22;19814;48.224;11.422;2023-06-24T11:00:08;27.00;68.80
33476;DHT22;19814;48.224;11.422;2023-06-24T11:02:34;27.30;68.70
33476;DHT22;19814;48.224;11.422;2023-06-24T11:05:07;27.20;75.00
33476;DHT22;19814;48.224;11.422;2023-06-24T11:07:35;26.90;72.20
33476;DHT22;19814;48.224;11.422;2023-06-24T11:10:06;27.10;78.60
33476;DHT22;19814;48.224;11.422;2023-06-24T11:12:36;27.40;76.50
33476;DHT22;19814;48.224;11.422;2023-06-24T11:15:10;27.50;78.00
33476;DHT22;19814;48.224;11.422;2023-06-24T11:17:37;27.60;70.10
33476;DHT22;19814;48.224;11.422;2023-06-24T11:20:08;27.50;69.10
33476;DHT22;19814;48.224;11.422;2023-06-24T11:22:33;27.20;65.00
33476;DHT22;19814;48.224;11.422;2023-06-24T11:24:59;27.10;71.40
33476;DHT22;19814;48.224;11.422;2023-06-24T11:27:26;27.30;71.80
33476;DHT22;19814;48.224;11.422;2023-06-24T11:29:53;27.60;72.00
33476;DHT22;19814;48.224;11.422;2023-06-24T11:32:19;28.00;74.20
33476;DHT22;19814;48.224;11.422;2023-06-24T11:34:45;28.30;69.30
33476;DHT22;19814;48.224;11.422;2023-06-24T11:37:13;28.30;70.60
33476;DHT22;19814;48.224;11.422;2023-06-24T11:39:39;28.40;70.80
33476;DHT22;19814;48.224;11.422;2023-06-24T11:42:08;28.50;64.10
33476;DHT22;19814;48.224;11.422;2023-06-24T11:44:34;27.60;62.90
33476;DHT22;19814;48.224;11.422;2023-06-24T11:47:08;27.40;72.70
33476;DHT22;19814;48.224;11.422;2023-06-24T11:49:55;27.60;72.30
33476;DHT22;19814;48.224;11.422;2023-06-24T11:55:02;28.50;67.60
33476;DHT22;19814;48.224;11.422;2023-06-24T12:00:31;29.00;67.00
33476;DHT22;19814;48.224;11.422;2023-06-24T12:03:01;29.10;63.80
33476;DHT22;19814;48.224;11.422;2023-06-24T12:05:29;29.00;66.70
33476;DHT22;19814;48.224;11.422;2023-06-24T12:10:25;29.10;66.90
33476;DHT22;19814;48.224;11.422;2023-06-24T12:12:51;29.10;62.50
33476;DHT22;19814;48.224;11.422;2023-06-24T12:15:16;28.80;58.60
33476;DHT22;19814;48.224;11.422;2023-06-24T12:17:42;28.70;58.10
33476;DHT22;19814;48.224;11.422;2023-06-24T12:20:08;28.60;57.50
33476;DHT22;19814;48.224;11.422;2023-06-24T12:22:39;28.20;61.20
33476;DHT22;19814;48.224;11.422;2023-06-24T12:25:13;28.10;66.40
33476;DHT22;19814;48.224;11.422;2023-06-24T12:27:39;27.40;59.10
33476;DHT22;19814;48.224;11.422;2023-06-24T12:30:06;26.70;64.30
33476;DHT22;19814;48.224;11.422;2023-06-24T12:32:32;26.80;66.10
33476;DHT22;19814;48.224;11.422;2023-06-24T12:34:57;26.90;62.30
33476;DHT22;19814;48.224;11.422;2023-06-24T12:37:23;27.00;62.10
33476;DHT22;19814;48.224;11.422;2023-06-24T12:39:49;27.10;61.40
33476;DHT22;19814;48.224;11.422;2023-06-24T12:42:16;27.00;62.30
33476;DHT22;19814;48.224;11.422;2023-06-24T12:44:42;26.80;63.30
33476;DHT22;19814;48.224;11.422;2023-06-24T12:47:07;26.60;63.70
33476;DHT22;19814;48.224;11.422;2023-06-24T12:49:33;26.80;66.80
33476;DHT22;19814;48.224;11.422;2023-06-24T12:51:58;26.90;68.20
33476;DHT22;19814;48.224;11.422;2023-06-24T12:54:24;27.00;62.50
33476;DHT22;19814;48.224;11.422;2023-06-24T12:56:49;26.30;65.20
33476;DHT22;19814;48.224;11.422;2023-06-24T12:59:15;25.80;65.10
33476;DHT22;19814;48.224;11.422;2023-06-24T13:01:40;25.50;66.80
33476;DHT22;19814;48.224;11.422;2023-06-24T13:04:10;24.60;67.20
33476;DHT22;19814;48.224;11.422;2023-06-24T13:06:35;24.20;69.50
33476;DHT22;19814;48.224;11.422;2023-06-24T13:09:01;24.30;69.90
33476;DHT22;19814;48.224;11.422;2023-06-24T13:11:27;24.80;70.30
33476;DHT22;19814;48.224;11.422;2023-06-24T13:13:52;25.10;65.80
33476;DHT22;19814;48.224;11.422;2023-06-24T13:16:18;24.90;68.40
33476;DHT22;19814;48.224;11.422;2023-06-24T13:18:43;25.40;67.20
33476;DHT22;19814;48.224;11.422;2023-06-24T13:21:09;25.70;66.70
33476;DHT22;19814;48.224;11.422;2023-06-24T13:23:35;25.80;66.30
33476;DHT22;19814;48.224;11.422;2023-06-24T13:26:03;25.80;65.50
33476;DHT22;19814;48.224;11.422;2023-06-24T13:28:28;26.00;65.70
33476;DHT22;19814;48.224;11.422;2023-06-24T13:30:54;26.10;66.80
33476;DHT22;19814;48.224;11.422;2023-06-24T13:33:20;26.10;68.90
33476;DHT22;19814;48.224;11.422;2023-06-24T13:35:46;26.20;68.50
33476;DHT22;19814;48.224;11.422;2023-06-24T13:38:12;26.40;65.90
33476;DHT22;19814;48.224;11.422;2023-06-24T13:40:39;26.40;69.10
33476;DHT22;19814;48.224;11.422;2023-06-24T13:43:04;26.50;67.80
33476;DHT22;19814;48.224;11.422;2023-06-24T13:45:30;26.40;66.50
33476;DHT22;19814;48.224;11.422;2023-06-24T13:47:55;26.30;69.70
33476;DHT22;19814;48.224;11.422;2023-06-24T13:50:21;26.20;68.20
33476;DHT22;19814;48.224;11.422;2023-06-24T13:52:46;25.80;68.50
33476;DHT22;19814;48.224;11.422;2023-06-24T13:55:12;25.60;66.00
33476;DHT22;19814;48.224;11.422;2023-06-24T13:57:37;25.40;65.50
33476;DHT22;19814;48.224;11.422;2023-06-24T14:00:03;25.00;63.00
33476;DHT22;19814;48.224;11.422;2023-06-24T14:02:29;24.30;66.20
33476;DHT22;19814;48.224;11.422;2023-06-24T14:04:55;24.00;65.30
33476;DHT22;19814;48.224;11.422;2023-06-24T14:07:20;23.90;70.10
33476;DHT22;19814;48.224;11.422;2023-06-24T14:09:46;24.00;69.50
33476;DHT22;19814;48.224;11.422;2023-06-24T14:12:11;23.90;66.90
33476;DHT22;19814;48.224;11.422;2023-06-24T14:14:37;23.90;70.60
33476;DHT22;19814;48.224;11.422;2023-06-24T14:17:05;24.00;69.80
33476;DHT22;19814;48.224;11.422;2023-06-24T14:19:34;24.10;72.60
33476;DHT22;19814;48.224;11.422;2023-06-24T14:22:00;24.30;66.60
33476;DHT22;19814;48.224;11.422;2023-06-24T14:24:26;24.30;66.80
33476;DHT22;19814;48.224;11.422;2023-06-24T14:26:51;24.30;68.60
33476;DHT22;19814;48.224;11.422;2023-06-24T14:29:17;24.30;69.60
33476;DHT22;19814;48.224;11.422;2023-06-24T14:31:43;24.40;69.20
33476;DHT22;19814;48.224;11.422;2023-06-24T14:34:08;24.30;68.50
33476;DHT22;19814;48.224;11.422;2023-06-24T14:36:34;24.30;71.10
33476;DHT22;19814;48.224;11.422;2023-06-24T14:38:59;24.20;64.30
33476;DHT22;19814;48.224;11.422;2023-06-24T14:41:25;24.20;69.60
33476;DHT22;19814;48.224;11.422;2023-06-24T14:43:50;24.30;69.30
33476;DHT22;19814;48.224;11.422;2023-06-24T14:46:16;24.40;68.20
33476;DHT22;19814;48.224;11.422;2023-06-24T14:48:42;24.50;67.00
33476;DHT22;19814;48.224;11.422;2023-06-24T14:51:07;24.70;66.00
33476;DHT22;19814;48.224;11.422;2023-06-24T14:53:33;24.60;68.50
33476;DHT22;19814;48.224;11.422;2023-06-24T14:55:59;24.70;68.30
33476;DHT22;19814;48.224;11.422;2023-06-24T14:58:25;24.80;66.50
33476;DHT22;19814;48.224;11.422;2023-06-24T15:00:50;24.80;64.50
33476;DHT22;19814;48.224;11.422;2023-06-24T15:03:16;24.60;69.50
33476;DHT22;19814;48.224;11.422;2023-06-24T15:05:41;24.80;67.60
33476;DHT22;19814;48.224;11.422;2023-06-24T15:08:07;25.00;64.40
33476;DHT22;19814;48.224;11.422;2023-06-24T15:10:32;24.90;69.20
33476;DHT22;19814;48.224;11.422;2023-06-24T15:12:58;25.00;69.10
33476;DHT22;19814;48.224;11.422;2023-06-24T15:15:24;24.80;66.30
33476;DHT22;19814;48.224;11.422;2023-06-24T15:17:49;24.80;68.50
33476;DHT22;19814;48.224;11.422;2023-06-24T15:20:15;24.40;62.60
33476;DHT22;19814;48.224;11.422;2023-06-24T15:22:41;24.10;64.30
33476;DHT22;19814;48.224;11.422;2023-06-24T15:25:07;24.00;66.30
33476;DHT22;19814;48.224;11.422;2023-06-24T15:27:32;24.00;69.30
33476;DHT22;19814;48.224;11.422;2023-06-24T15:29:58;24.00;67.40
33476;DHT22;19814;48.224;11.422;2023-06-24T15:32:23;23.90;66.80
33476;DHT22;19814;48.224;11.422;2023-06-24T15:34:49;23.70;70.00
33476;DHT22;19814;48.224;11.422;2023-06-24T15:37:14;23.60;70.70
33476;DHT22;19814;48.224;11.422;2023-06-24T15:39:40;23.50;71.00
33476;DHT22;19814;48.224;11.422;2023-06-24T15:42:06;23.50;69.40